Time;durP1;ratioP1;P1;durP2;ratioP2;P2;SDS_P1;SDS_P2;PMS_P1;PMS_P2;Temp;Humidity;BMP_temperature;BMP_pressure;BME280_temperature;BME280_humidity;BME280_pressure;Samples;Min_cycle;Max_cycle;Signal;HPM_P1;HPM_P2
2020/12/08 00:04:51;;;;;;;10.90;7.70;;;;;;;2.88;100.00;97053.36;3682587;78;43724;-23
2020/12/08 00:09:57;;;;;;;12.20;8.10;;;;;;;2.85;100.00;97054.16;3682705;80;42853;-23
2020/12/08 00:15:04;;;;;;;14.80;9.20;;;;;;;2.87;100.00;97051.68;3675362;79;43996;-23
2020/12/08 00:20:11;;;;;;;15.23;9.63;;;;;;;2.82;100.00;97047.78;3666293;78;44575;-22
2020/12/08 00:25:19;;;;;;;16.57;10.93;;;;;;;2.83;100.00;97044.14;3655837;80;44631;-24
2020/12/08 00:30:25;;;;;;;18.03;10.73;;;;;;;2.84;100.00;97059.95;3669978;78;43337;-22
2020/12/08 00:35:31;;;;;;;18.60;10.43;;;;;;;2.84;100.00;97045.31;3661035;78;44237;-23
2020/12/08 00:40:37;;;;;;;17.50;10.57;;;;;;;2.84;100.00;97035.19;3652828;80;44026;-22
2020/12/08 00:45:44;;;;;;;16.07;10.93;;;;;;;2.82;100.00;97031.83;3682749;80;43758;-22
2020/12/08 00:50:51;;;;;;;16.27;10.63;;;;;;;2.82;100.00;97026.52;3682339;78;43460;-22
2020/12/08 00:55:58;;;;;;;17.60;10.53;;;;;;;2.87;100.00;97025.59;3708144;78;43150;-22
2020/12/08 01:01:05;;;;;;;17.07;10.30;;;;;;;2.89;100.00;97024.92;3659086;80;43427;-22
2020/12/08 01:06:11;;;;;;;17.30;10.57;;;;;;;2.93;100.00;97018.34;3680003;78;43922;-22
2020/12/08 01:11:18;;;;;;;15.77;10.53;;;;;;;2.93;100.00;97020.52;3681585;79;26291;-23
2020/12/08 01:16:26;;;;;;;15.80;10.33;;;;;;;2.97;100.00;97025.05;3676107;80;43301;-22
2020/12/08 01:21:33;;;;;;;16.00;9.90;;;;;;;2.98;100.00;97033.84;3690577;78;26358;-23
2020/12/08 01:26:39;;;;;;;15.87;10.63;;;;;;;2.97;100.00;97038.83;3677761;78;43677;-23
2020/12/08 01:31:45;;;;;;;14.90;10.47;;;;;;;2.96;100.00;97044.65;3693581;80;44057;-22
2020/12/08 01:36:53;;;;;;;15.80;10.53;;;;;;;2.92;100.00;97041.45;3686511;78;26362;-23
2020/12/08 01:42:00;;;;;;;16.63;10.67;;;;;;;2.93;100.00;97047.59;3716147;78;43165;-23
2020/12/08 01:47:07;;;;;;;15.87;9.93;;;;;;;2.91;100.00;97032.27;3730137;78;26360;-24
2020/12/08 01:52:16;;;;;;;16.90;10.53;;;;;;;2.91;100.00;97035.78;3734531;77;44055;-23
2020/12/08 01:57:23;;;;;;;16.70;10.30;;;;;;;2.88;100.00;97033.92;3740031;77;43673;-23
2020/12/08 02:02:30;;;;;;;16.23;10.30;;;;;;;2.92;100.00;97031.29;3714033;78;26477;-23
2020/12/08 02:07:43;;;;;;;17.13;10.73;;;;;;;2.81;100.00;97021.70;3748337;77;42804;-23
2020/12/08 02:12:50;;;;;;;15.93;9.93;;;;;;;2.84;100.00;97016.56;3723790;78;43424;-23
2020/12/08 02:17:57;;;;;;;14.80;9.87;;;;;;;2.72;100.00;97011.44;3735946;78;42803;-23
2020/12/08 02:23:03;;;;;;;13.70;9.53;;;;;;;2.73;100.00;97001.16;3698789;78;44107;-23
2020/12/08 02:28:11;;;;;;;13.67;9.10;;;;;;;2.74;100.00;97009.48;3759179;78;26842;-23
2020/12/08 02:33:17;;;;;;;14.83;9.70;;;;;;;2.75;100.00;97012.48;3727347;77;44584;-23
2020/12/08 02:38:23;;;;;;;14.07;9.23;;;;;;;2.70;100.00;97010.74;3743348;77;44014;-22
2020/12/08 02:43:31;;;;;;;14.90;9.53;;;;;;;2.69;100.00;97005.58;3683180;78;43407;-23
2020/12/08 02:48:38;;;;;;;16.43;10.20;;;;;;;2.72;100.00;97011.44;3676381;78;44161;-23
2020/12/08 02:53:47;;;;;;;16.40;10.27;;;;;;;2.77;100.00;97007.83;3657938;78;44470;-23
2020/12/08 02:58:52;;;;;;;16.00;10.03;;;;;;;2.68;100.00;97015.88;3668133;80;43642;-22
2020/12/08 03:04:00;;;;;;;14.93;10.13;;;;;;;2.64;100.00;97007.36;3680197;78;43401;-23
2020/12/08 03:09:06;;;;;;;16.97;10.30;;;;;;;2.65;100.00;97010.84;3667017;80;44498;-22
2020/12/08 03:14:13;;;;;;;15.27;9.57;;;;;;;2.63;100.00;97017.64;3687122;78;44066;-22
2020/12/08 03:19:20;;;;;;;16.33;9.93;;;;;;;2.64;100.00;97024.64;3691554;78;44414;-22
2020/12/08 03:24:27;;;;;;;15.73;9.53;;;;;;;2.60;100.00;97020.59;3651883;80;44151;-22
2020/12/08 03:29:33;;;;;;;16.53;10.60;;;;;;;2.67;100.00;97030.97;3677132;78;43371;-22
2020/12/08 03:34:42;;;;;;;16.43;10.23;;;;;;;2.68;100.00;97026.51;3655898;78;44472;-22
2020/12/08 03:39:50;;;;;;;18.07;11.00;;;;;;;2.66;100.00;97018.66;3655583;80;44022;-23
2020/12/08 03:44:57;;;;;;;16.63;10.87;;;;;;;2.64;100.00;97023.31;3694199;78;44014;-22
2020/12/08 03:50:05;;;;;;;18.67;10.83;;;;;;;2.59;100.00;97012.26;3681906;78;26879;-22
2020/12/08 03:55:13;;;;;;;17.67;11.17;;;;;;;2.53;100.00;97011.52;3677125;79;44081;-22
2020/12/08 04:00:19;;;;;;;19.20;11.50;;;;;;;2.53;100.00;97020.83;3684463;79;44171;-23
2020/12/08 04:05:28;;;;;;;16.87;10.47;;;;;;;2.51;100.00;97021.47;3691210;78;44065;-23
2020/12/08 04:10:35;;;;;;;20.50;12.20;;;;;;;2.57;100.00;97024.86;3692284;78;42811;-22
2020/12/08 04:15:41;;;;;;;19.93;11.87;;;;;;;2.57;100.00;97023.52;3702398;78;43685;-22
2020/12/08 04:20:49;;;;;;;21.37;12.90;;;;;;;2.67;100.00;97024.32;3686237;78;43726;-23
2020/12/08 04:25:58;;;;;;;19.97;11.70;;;;;;;2.61;100.00;97023.59;3696216;78;44054;-22
2020/12/08 04:31:04;;;;;;;20.60;12.67;;;;;;;2.62;100.00;97031.92;3672830;79;44106;-22
2020/12/08 04:36:13;;;;;;;21.93;12.70;;;;;;;2.53;100.00;97024.81;3716512;78;43255;-22
2020/12/08 04:41:26;;;;;;;21.47;12.53;;;;;;;2.54;100.00;97037.09;3686580;78;43997;-22
2020/12/08 04:46:32;;;;;;;20.73;12.23;;;;;;;2.55;100.00;97034.80;3674335;78;43290;-22
2020/12/08 04:51:41;;;;;;;21.77;13.00;;;;;;;2.55;100.00;97036.12;3699493;80;43409;-22
2020/12/08 04:56:50;;;;;;;21.07;12.37;;;;;;;2.53;100.00;97046.09;3683673;80;43665;-22
2020/12/08 05:02:00;;;;;;;21.37;12.87;;;;;;;2.60;100.00;97051.16;3685544;78;43967;-22
2020/12/08 05:07:07;;;;;;;19.80;11.67;;;;;;;2.51;100.00;97036.08;3663604;80;43991;-22
2020/12/08 05:12:20;;;;;;;20.70;12.17;;;;;;;2.53;100.00;97048.75;3682340;78;43696;-21
2020/12/08 05:17:28;;;;;;;19.73;11.87;;;;;;;2.59;100.00;97038.84;3696721;78;43400;-21
2020/12/08 05:22:36;;;;;;;20.33;12.13;;;;;;;2.61;100.00;97020.93;3681826;80;44023;-24
2020/12/08 05:27:45;;;;;;;18.97;11.60;;;;;;;2.62;100.00;97035.91;3668555;80;43733;-21
2020/12/08 05:32:52;;;;;;;19.20;11.43;;;;;;;2.63;100.00;97025.62;3683248;78;43362;-22
2020/12/08 05:38:00;;;;;;;21.03;11.93;;;;;;;2.64;100.00;97044.58;3680304;78;43361;-24
2020/12/08 05:43:08;;;;;;;19.60;11.00;;;;;;;2.66;100.00;97044.42;3686031;78;43253;-23
2020/12/08 05:48:16;;;;;;;21.37;12.27;;;;;;;2.68;100.00;97049.93;3661128;80;43713;-23
2020/12/08 05:53:22;;;;;;;19.57;12.07;;;;;;;2.65;100.00;97042.23;3716925;78;44606;-24
2020/12/08 05:58:28;;;;;;;18.70;11.77;;;;;;;2.66;100.00;97043.91;3713053;78;44147;-23
2020/12/08 06:03:36;;;;;;;21.63;12.20;;;;;;;2.59;100.00;97045.49;3741398;77;44152;-24
2020/12/08 06:08:46;;;;;;;20.73;11.80;;;;;;;2.54;100.00;97035.77;3713365;78;43506;-23
2020/12/08 06:13:53;;;;;;;20.03;12.13;;;;;;;2.46;100.00;97025.38;3724115;77;43294;-23
2020/12/08 06:19:01;;;;;;;18.37;11.83;;;;;;;2.42;100.00;97028.48;3753631;77;43728;-23
2020/12/08 06:24:07;;;;;;;18.60;11.80;;;;;;;2.38;100.00;97027.94;3737510;78;44074;-23
2020/12/08 06:29:14;;;;;;;18.33;10.63;;;;;;;2.25;100.00;97030.88;3721862;78;43380;-23
2020/12/08 06:34:26;;;;;;;21.20;12.80;;;;;;;2.16;100.00;97029.09;3747958;77;43403;-23
2020/12/08 06:44:46;;;;;;;23.47;12.67;;;;;;;1.98;100.00;97019.21;3985202;73;29332;-21
2020/12/08 06:49:51;;;;;;;23.30;13.13;;;;;;;1.90;100.00;97029.68;3955736;73;44430;-22
2020/12/08 06:55:02;;;;;;;24.57;13.80;;;;;;;1.71;100.00;97031.84;3936054;75;43318;-22
2020/12/08 07:00:09;;;;;;;23.10;12.43;;;;;;;1.61;100.00;97042.48;3915718;75;43717;-21
2020/12/08 07:05:16;;;;;;;22.90;13.70;;;;;;;1.53;100.00;97055.59;3914258;73;43167;-24
2020/12/08 07:10:22;;;;;;;21.50;13.17;;;;;;;1.43;100.00;97046.31;3913169;75;43635;-22
2020/12/08 07:15:30;;;;;;;22.53;12.90;;;;;;;1.41;100.00;97058.05;3908202;75;44067;-21
2020/12/08 07:20:38;;;;;;;22.13;12.93;;;;;;;1.42;100.00;97059.70;3917209;73;43048;-22
2020/12/08 07:25:44;;;;;;;21.77;13.23;;;;;;;1.25;100.00;97079.30;3933566;75;44101;-22
2020/12/08 07:30:52;;;;;;;23.83;13.23;;;;;;;1.21;100.00;97077.41;3938186;75;43450;-23
2020/12/08 07:35:58;;;;;;;23.27;12.47;;;;;;;1.12;100.00;97082.19;3908080;73;43131;-22
2020/12/08 07:41:03;;;;;;;20.93;12.70;;;;;;;1.05;100.00;97094.31;3905435;75;44023;-22
2020/12/08 07:46:09;;;;;;;23.60;13.10;;;;;;;1.02;100.00;97086.62;3890916;75;44137;-22
2020/12/08 07:51:15;;;;;;;24.77;13.17;;;;;;;1.06;100.00;97084.06;3918775;73;43518;-22
2020/12/08 07:56:26;;;;;;;22.27;13.07;;;;;;;1.06;100.00;97086.72;3879874;75;43608;-22
2020/12/08 08:01:39;;;;;;;28.80;15.83;;;;;;;1.10;100.00;97094.77;3911639;74;44443;-22
2020/12/08 08:06:46;;;;;;;25.47;13.37;;;;;;;1.10;100.00;97087.28;3888664;74;43322;-22
2020/12/08 08:11:53;;;;;;;27.83;14.53;;;;;;;1.12;100.00;97101.25;3900569;75;43690;-22
2020/12/08 08:16:59;;;;;;;28.43;13.53;;;;;;;1.16;100.00;97104.82;3914631;74;43471;-22
2020/12/08 08:22:05;;;;;;;23.20;14.13;;;;;;;1.16;100.00;97092.06;3897372;75;44072;-22
2020/12/08 08:27:11;;;;;;;26.67;14.00;;;;;;;1.19;100.00;97103.23;3906628;74;44046;-22
2020/12/08 08:32:16;;;;;;;26.13;14.53;;;;;;;1.23;100.00;97109.92;3888750;74;44149;-22
2020/12/08 08:37:22;;;;;;;25.10;14.03;;;;;;;1.29;100.00;97115.21;3904239;75;43342;-22
2020/12/08 08:42:29;;;;;;;26.90;14.60;;;;;;;1.37;100.00;97117.16;3893967;75;42864;-22
2020/12/08 08:47:35;;;;;;;24.47;14.07;;;;;;;1.50;100.00;97115.10;3886639;74;44103;-22
2020/12/08 08:52:41;;;;;;;27.13;14.90;;;;;;;1.63;100.00;97097.61;3880361;75;42967;-22
2020/12/08 08:57:47;;;;;;;25.50;14.70;;;;;;;1.79;100.00;97102.84;3909716;74;43895;-22
2020/12/08 09:02:52;;;;;;;26.10;15.23;;;;;;;1.90;100.00;97108.02;3870134;74;42910;-22
2020/12/08 09:07:58;;;;;;;24.27;13.93;;;;;;;2.03;100.00;97109.09;3927785;75;43697;-22
2020/12/08 09:13:04;;;;;;;26.80;15.03;;;;;;;2.08;100.00;97117.46;3906980;75;43358;-22
2020/12/08 09:18:10;;;;;;;26.37;14.80;;;;;;;2.24;100.00;97114.23;3907986;74;44091;-22
2020/12/08 09:23:16;;;;;;;27.60;14.70;;;;;;;2.36;100.00;97101.65;3898332;75;43299;-22
2020/12/08 09:28:22;;;;;;;27.23;14.33;;;;;;;2.49;100.00;97093.87;3875582;74;44102;-22
2020/12/08 09:33:29;;;;;;;24.57;13.87;;;;;;;2.57;100.00;97088.66;3875310;74;43722;-22
2020/12/08 09:38:35;;;;;;;23.93;13.27;;;;;;;2.69;100.00;97095.99;3883246;74;43073;-22
2020/12/08 09:43:42;;;;;;;24.23;13.63;;;;;;;2.81;100.00;97105.95;3860211;75;43499;-22
2020/12/08 09:48:48;;;;;;;23.77;12.80;;;;;;;2.84;100.00;97105.67;3872134;74;43468;-22
2020/12/08 09:53:55;;;;;;;22.93;13.50;;;;;;;2.97;100.00;97115.50;3908754;75;44071;-23
2020/12/08 09:59:01;;;;;;;22.37;13.30;;;;;;;2.98;100.00;97118.98;3923263;75;44054;-23
2020/12/08 10:04:09;;;;;;;22.73;13.30;;;;;;;3.04;100.00;97124.56;3907917;74;43708;-23
2020/12/08 10:09:15;;;;;;;22.57;13.33;;;;;;;3.10;100.00;97123.64;3858596;75;44248;-23
2020/12/08 10:14:20;;;;;;;24.27;12.43;;;;;;;3.09;100.00;97124.12;3858201;75;43686;-22
2020/12/08 10:19:26;;;;;;;24.80;13.87;;;;;;;3.17;100.00;97125.58;3915415;74;44449;-22
2020/12/08 10:24:33;;;;;;;23.47;13.50;;;;;;;3.31;100.00;97135.37;3857911;75;43723;-22
2020/12/08 10:29:39;;;;;;;25.67;13.47;;;;;;;3.37;100.00;97124.97;3863760;75;43454;-22
2020/12/08 10:34:46;;;;;;;22.50;13.30;;;;;;;3.52;100.00;97124.48;3869111;74;44940;-23
2020/12/08 10:39:52;;;;;;;22.17;13.57;;;;;;;3.69;100.00;97127.69;3879743;75;44139;-22
2020/12/08 10:44:58;;;;;;;23.07;13.43;;;;;;;3.80;100.00;97131.12;3886501;74;43047;-22
2020/12/08 10:50:05;;;;;;;20.73;12.37;;;;;;;3.96;100.00;97141.11;3963270;73;44156;-23
2020/12/08 10:55:12;;;;;;;23.03;13.47;;;;;;;4.15;100.00;97136.95;3930098;74;43209;-22
2020/12/08 11:00:18;;;;;;;20.90;12.93;;;;;;;4.26;100.00;97138.56;3920348;74;44051;-22
2020/12/08 11:05:24;;;;;;;21.47;12.87;;;;;;;4.32;100.00;97139.27;3937155;73;43629;-23
2020/12/08 11:10:30;;;;;;;20.47;12.13;;;;;;;4.46;100.00;97131.23;3949764;74;44017;-23
2020/12/08 11:15:35;;;;;;;20.57;12.77;;;;;;;4.66;100.00;97123.52;3944622;74;44042;-23
2020/12/08 11:20:41;;;;;;;20.30;12.10;;;;;;;4.73;100.00;97115.25;3925595;73;43664;-23
2020/12/08 11:25:47;;;;;;;18.53;12.07;;;;;;;4.76;100.00;97119.77;3916969;74;42666;-23
2020/12/08 11:30:53;;;;;;;18.53;11.73;;;;;;;4.86;100.00;97116.15;3941846;74;43333;-23
2020/12/08 11:36:02;;;;;;;19.47;11.80;;;;;;;4.91;100.00;97106.67;3916467;73;43717;-23
2020/12/08 11:41:08;;;;;;;18.83;11.60;;;;;;;4.86;100.00;97104.99;3907689;73;43654;-23
2020/12/08 11:46:14;;;;;;;17.23;10.80;;;;;;;5.01;100.00;97115.91;3937906;74;44659;-22
2020/12/08 11:51:20;;;;;;;16.33;10.60;;;;;;;5.00;100.00;97112.08;3929126;73;43708;-23
2020/12/08 11:56:26;;;;;;;16.43;10.57;;;;;;;5.09;100.00;97116.45;3917509;74;43389;-22
2020/12/08 12:01:32;;;;;;;14.67;9.20;;;;;;;5.12;100.00;97117.45;3928199;74;44206;-23
2020/12/08 12:06:38;;;;;;;15.33;8.53;;;;;;;5.22;100.00;97112.86;3911960;74;44074;-23
2020/12/08 12:11:43;;;;;;;12.70;8.37;;;;;;;5.33;100.00;97118.91;3931467;73;44170;-22
2020/12/08 12:16:49;;;;;;;12.73;9.17;;;;;;;5.38;100.00;97108.56;3945113;73;43364;-23
2020/12/08 12:21:55;;;;;;;14.77;9.50;;;;;;;5.44;100.00;97101.26;3939546;73;43661;-23
2020/12/08 12:27:01;;;;;;;15.73;9.83;;;;;;;5.59;100.00;97098.80;3935280;74;44060;-24
2020/12/08 12:32:06;;;;;;;14.80;10.00;;;;;;;5.80;100.00;97090.83;3923343;73;44201;-23
2020/12/08 12:37:13;;;;;;;15.23;9.20;;;;;;;5.90;100.00;97093.36;3941629;74;44195;-23
2020/12/08 12:42:22;;;;;;;14.90;9.37;;;;;;;5.95;100.00;97091.02;3932750;73;44149;-23
2020/12/08 12:47:27;;;;;;;16.17;10.47;;;;;;;5.92;100.00;97091.37;3884858;74;44019;-23
2020/12/08 12:52:34;;;;;;;14.20;9.50;;;;;;;6.03;100.00;97091.08;3870377;75;44052;-23
2020/12/08 12:57:40;;;;;;;15.07;9.60;;;;;;;6.04;100.00;97091.90;3883169;75;44140;-23
2020/12/08 13:02:46;;;;;;;14.60;9.27;;;;;;;6.22;100.00;97095.76;3887843;74;43409;-23
2020/12/08 13:07:52;;;;;;;14.43;9.30;;;;;;;6.50;100.00;97092.76;3898514;75;43705;-23
2020/12/08 13:12:58;;;;;;;13.23;8.80;;;;;;;6.56;100.00;97087.57;3902325;75;44096;-23
2020/12/08 13:18:05;;;;;;;13.73;8.90;;;;;;;6.71;100.00;97092.20;3923829;74;44715;-23
2020/12/08 13:23:10;;;;;;;13.33;8.33;;;;;;;6.91;99.10;97099.38;3881215;75;44412;-23
2020/12/08 13:28:16;;;;;;;16.13;9.57;;;;;;;7.08;96.25;97102.36;3894568;75;43417;-23
2020/12/08 13:33:22;;;;;;;13.37;8.87;;;;;;;7.23;95.21;97101.13;3879701;74;43328;-23
2020/12/08 13:38:28;;;;;;;12.23;8.37;;;;;;;7.48;93.98;97106.89;3883457;75;44018;-23
2020/12/08 13:43:34;;;;;;;13.20;8.63;;;;;;;7.81;89.00;97114.80;3895436;75;43509;-23
2020/12/08 13:48:40;;;;;;;15.37;10.00;;;;;;;7.90;86.67;97116.90;3834188;75;43702;-23
2020/12/08 13:53:48;;;;;;;13.10;8.90;;;;;;;7.82;85.96;97113.78;3834528;76;43648;-23
2020/12/08 13:58:55;;;;;;;14.73;9.03;;;;;;;7.85;86.10;97114.75;3851326;76;43387;-23
2020/12/08 14:04:03;;;;;;;12.37;8.80;;;;;;;7.80;85.79;97122.51;3848384;75;43361;-23
2020/12/08 14:09:08;;;;;;;13.83;9.40;;;;;;;7.59;83.84;97129.28;3859065;76;44020;-23
2020/12/08 14:14:15;;;;;;;15.33;9.70;;;;;;;7.24;86.35;97126.06;3851509;76;43689;-23
2020/12/08 14:19:22;;;;;;;13.13;8.97;;;;;;;6.94;89.88;97128.49;3845733;75;43376;-23
2020/12/08 14:24:30;;;;;;;15.37;10.17;;;;;;;6.84;88.53;97131.86;3828759;76;44042;-24
2020/12/08 14:29:38;;;;;;;15.23;10.43;;;;;;;6.37;89.70;97132.88;3854655;76;43474;-24
2020/12/08 14:34:45;;;;;;;14.63;9.80;;;;;;;6.04;90.43;97136.01;3860128;75;43008;-24
2020/12/08 14:39:52;;;;;;;16.60;10.60;;;;;;;5.88;92.75;97135.45;3843485;76;44106;-23
2020/12/08 14:44:59;;;;;;;17.77;11.10;;;;;;;5.66;95.59;97138.55;3864961;74;44014;-24
2020/12/08 14:50:05;;;;;;;19.53;12.10;;;;;;;5.28;96.58;97146.09;3930701;73;44003;-24
2020/12/08 14:55:11;;;;;;;17.90;11.77;;;;;;;4.92;100.00;97143.05;3940479;74;44007;-24
2020/12/08 15:00:20;;;;;;;21.70;12.53;;;;;;;4.57;100.00;97140.80;3934876;74;27220;-23
2020/12/08 15:05:26;;;;;;;22.90;13.60;;;;;;;4.36;100.00;97142.97;3936039;73;43451;-23
2020/12/08 15:10:32;;;;;;;20.53;12.53;;;;;;;4.11;100.00;97132.94;3944188;74;43136;-23
2020/12/08 15:15:38;;;;;;;21.30;12.63;;;;;;;3.98;100.00;97137.29;3957071;74;43303;-23
2020/12/08 15:20:48;;;;;;;21.13;13.07;;;;;;;3.91;100.00;97141.56;3931251;73;43366;-22
2020/12/08 15:25:57;;;;;;;22.63;11.97;;;;;;;3.67;100.00;97141.64;3951196;73;43681;-21
2020/12/08 15:31:03;;;;;;;21.23;12.87;;;;;;;3.43;100.00;97138.18;3935212;74;43014;-22
2020/12/08 15:36:09;;;;;;;21.90;13.50;;;;;;;3.26;100.00;97146.45;3935727;74;44540;-23
2020/12/08 15:41:18;;;;;;;21.97;12.87;;;;;;;3.08;100.00;97160.55;3938606;74;44131;-22
2020/12/08 15:46:25;;;;;;;22.67;13.70;;;;;;;3.00;100.00;97158.25;3933443;74;43712;-23
2020/12/08 15:51:32;;;;;;;25.77;15.23;;;;;;;2.87;100.00;97156.75;3931119;74;44058;-22
2020/12/08 15:56:42;;;;;;;24.53;14.80;;;;;;;2.94;100.00;97159.67;3927822;73;44040;-23
2020/12/08 16:01:49;;;;;;;26.03;15.27;;;;;;;2.94;100.00;97157.02;3948290;73;43494;-22
2020/12/08 16:06:55;;;;;;;22.13;13.43;;;;;;;2.84;100.00;97162.85;3921788;74;44748;-22
2020/12/08 16:12:02;;;;;;;23.80;14.70;;;;;;;2.60;100.00;97160.99;3961915;74;43447;-21
2020/12/08 16:17:08;;;;;;;23.73;13.87;;;;;;;2.51;100.00;97154.38;3937659;73;44010;-21
2020/12/08 16:22:15;;;;;;;25.70;14.47;;;;;;;2.33;100.00;97161.72;3943002;74;44427;-21
2020/12/08 16:27:22;;;;;;;25.00;14.37;;;;;;;2.23;100.00;97161.75;3909819;73;43726;-21
2020/12/08 16:32:28;;;;;;;25.17;14.87;;;;;;;2.10;100.00;97159.34;3919011;73;43295;-22
2020/12/08 16:37:35;;;;;;;25.60;13.83;;;;;;;2.00;100.00;97158.50;3947321;74;44070;-21
2020/12/08 16:42:42;;;;;;;27.20;14.77;;;;;;;1.94;100.00;97165.20;3938911;74;43006;-21
2020/12/08 16:47:50;;;;;;;28.17;16.50;;;;;;;1.87;100.00;97175.19;3955525;73;43333;-22
2020/12/08 16:52:57;;;;;;;27.30;14.23;;;;;;;1.92;100.00;97182.27;3910639;74;43202;-22
2020/12/08 16:58:03;;;;;;;28.47;16.13;;;;;;;1.91;100.00;97178.75;3944428;74;44037;-21
2020/12/08 17:03:10;;;;;;;27.50;14.90;;;;;;;1.82;100.00;97178.25;3950336;73;43381;-21
2020/12/08 17:08:15;;;;;;;26.50;15.57;;;;;;;1.89;100.00;97179.88;3919431;73;44465;-21
2020/12/08 17:13:21;;;;;;;26.20;15.60;;;;;;;1.88;100.00;97180.85;3919650;74;44811;-21
2020/12/08 17:18:27;;;;;;;28.60;16.13;;;;;;;1.79;100.00;97197.97;3937154;73;43443;-21
2020/12/08 17:23:35;;;;;;;27.60;15.90;;;;;;;1.65;100.00;97211.61;3920364;74;44423;-21
2020/12/08 17:28:41;;;;;;;27.17;16.13;;;;;;;1.51;100.00;97203.05;3920462;74;44158;-21
2020/12/08 17:33:48;;;;;;;25.97;15.80;;;;;;;1.48;100.00;97196.67;3942069;73;43705;-21
2020/12/08 17:38:54;;;;;;;28.67;16.23;;;;;;;1.45;100.00;97196.10;3950810;74;44011;-21
2020/12/08 17:44:01;;;;;;;28.43;15.90;;;;;;;1.41;100.00;97211.45;3932153;74;44178;-21
2020/12/08 17:49:07;;;;;;;38.93;20.23;;;;;;;1.36;100.00;97218.50;3927214;73;43412;-22
2020/12/08 17:54:13;;;;;;;37.23;19.73;;;;;;;1.28;100.00;97226.76;3939036;74;44018;-21
2020/12/08 17:59:19;;;;;;;44.07;25.47;;;;;;;1.24;100.00;97227.52;3913212;74;43698;-21
2020/12/08 18:04:25;;;;;;;39.80;21.57;;;;;;;1.07;100.00;97235.09;3910367;73;44060;-24
2020/12/08 18:09:31;;;;;;;33.63;17.90;;;;;;;0.99;100.00;97225.63;3912996;74;44033;-23
2020/12/08 18:14:37;;;;;;;34.27;17.83;;;;;;;0.98;100.00;97227.10;3956553;74;44037;-23
2020/12/08 18:19:46;;;;;;;29.80;16.27;;;;;;;0.99;100.00;97227.46;3972420;73;43982;-22
2020/12/08 18:24:52;;;;;;;30.53;16.57;;;;;;;1.02;100.00;97225.84;3927252;74;43681;-23
2020/12/08 18:29:58;;;;;;;29.30;15.47;;;;;;;1.04;100.00;97230.55;3919908;74;43681;-23
2020/12/08 18:35:09;;;;;;;26.53;15.07;;;;;;;1.08;100.00;97230.64;3909240;73;43457;-23
2020/12/08 18:40:15;;;;;;;26.80;15.67;;;;;;;1.16;100.00;97228.17;3930607;73;44681;-21
2020/12/08 18:45:22;;;;;;;26.27;14.70;;;;;;;1.25;100.00;97221.70;3935818;74;43710;-21
2020/12/08 18:50:27;;;;;;;23.13;14.03;;;;;;;1.35;100.00;97212.83;3758305;74;43670;-23
2020/12/08 18:55:34;;;;;;;25.67;14.23;;;;;;;1.34;100.00;97215.63;3726791;79;44421;-21
2020/12/08 19:00:41;;;;;;;24.87;14.13;;;;;;;1.27;100.00;97224.61;3727694;79;43401;-23
2020/12/08 19:05:47;;;;;;;28.30;15.83;;;;;;;1.18;100.00;97234.19;3736886;78;44018;-22
2020/12/08 19:10:53;;;;;;;31.20;17.80;;;;;;;1.02;100.00;97224.05;3721753;78;43311;-24
2020/12/08 19:15:59;;;;;;;33.60;17.30;;;;;;;0.95;100.00;97225.53;3734638;78;44038;-23
2020/12/08 19:21:07;;;;;;;28.40;15.70;;;;;;;0.78;100.00;97226.13;3731990;78;43996;-23
2020/12/08 19:26:13;;;;;;;32.07;17.30;;;;;;;0.74;100.00;97236.98;3728245;78;43281;-24
2020/12/08 19:31:18;;;;;;;34.33;19.93;;;;;;;0.72;100.00;97244.72;3727533;79;44055;-24
2020/12/08 19:36:24;;;;;;;32.30;16.90;;;;;;;0.46;100.00;97246.39;3729793;78;43277;-23
2020/12/08 19:41:31;;;;;;;29.80;16.70;;;;;;;0.48;100.00;97235.66;3716896;78;43684;-23
2020/12/08 19:46:37;;;;;;;30.00;16.37;;;;;;;0.73;100.00;97218.57;3732348;78;43344;-23
2020/12/08 19:51:45;;;;;;;30.80;16.03;;;;;;;0.92;100.00;97229.29;3750885;78;43433;-23
2020/12/08 19:56:51;;;;;;;29.07;16.37;;;;;;;1.15;100.00;97222.50;3751454;78;43690;-23
2020/12/08 20:01:58;;;;;;;30.27;16.70;;;;;;;1.33;100.00;97236.50;3756615;78;44414;-23
2020/12/08 20:07:04;;;;;;;30.33;17.07;;;;;;;1.37;100.00;97253.81;3757301;77;44928;-23
2020/12/08 20:12:14;;;;;;;25.50;15.00;;;;;;;1.15;100.00;97256.99;3756109;77;43485;-23
2020/12/08 20:17:20;;;;;;;27.53;16.33;;;;;;;0.97;100.00;97247.96;3765541;78;43387;-23
2020/12/08 20:22:26;;;;;;;28.20;15.40;;;;;;;1.10;100.00;97239.79;3765951;78;43709;-23
2020/12/08 20:27:32;;;;;;;25.47;14.47;;;;;;;1.27;100.00;97235.22;3681984;80;43711;-23
2020/12/08 20:32:39;;;;;;;26.70;15.30;;;;;;;1.35;100.00;97239.37;3778386;78;44082;-23
2020/12/08 20:37:45;;;;;;;27.93;16.10;;;;;;;1.40;100.00;97240.80;3774026;78;43343;-23
2020/12/08 20:42:51;;;;;;;27.37;16.50;;;;;;;1.34;100.00;97242.99;3763360;78;43390;-22
2020/12/08 20:47:58;;;;;;;28.83;17.07;;;;;;;1.30;100.00;97243.39;3748978;78;43697;-22
2020/12/08 20:53:04;;;;;;;26.23;15.77;;;;;;;1.08;100.00;97240.75;3783545;77;44065;-22
2020/12/08 20:58:12;;;;;;;27.80;16.73;;;;;;;1.00;100.00;97253.02;3784682;77;43460;-22
2020/12/08 21:03:18;;;;;;;27.60;16.30;;;;;;;0.97;100.00;97246.63;3722968;79;42949;-22
2020/12/08 21:08:23;;;;;;;32.33;17.80;;;;;;;0.99;100.00;97244.70;3789080;78;44067;-22
2020/12/08 21:13:30;;;;;;;31.40;17.83;;;;;;;1.05;100.00;97240.19;3731117;79;43424;-22
2020/12/08 21:18:36;;;;;;;28.93;16.87;;;;;;;1.12;100.00;97243.16;3731363;78;42859;-22
2020/12/08 21:23:42;;;;;;;28.57;16.60;;;;;;;0.93;100.00;97242.08;3792068;77;44085;-22
2020/12/08 21:28:48;;;;;;;31.13;17.37;;;;;;;0.99;100.00;97240.72;3729669;79;44178;-23
2020/12/08 21:33:55;;;;;;;28.40;16.90;;;;;;;0.81;100.00;97242.61;3729747;79;44063;-22
2020/12/08 21:39:02;;;;;;;30.13;17.20;;;;;;;0.82;100.00;97247.45;3793918;78;43507;-23
2020/12/08 21:44:08;;;;;;;27.30;15.97;;;;;;;0.77;100.00;97242.50;3727877;79;43756;-22
2020/12/08 21:49:14;;;;;;;29.23;15.97;;;;;;;0.69;100.00;97242.31;3704729;79;43150;-22
2020/12/08 21:54:20;;;;;;;29.53;15.90;;;;;;;0.66;100.00;97247.86;3775003;77;43729;-21
2020/12/08 21:59:26;;;;;;;26.57;16.00;;;;;;;0.69;100.00;97260.41;3764197;78;43678;-22
2020/12/08 22:04:32;;;;;;;29.50;17.07;;;;;;;0.69;100.00;97254.24;3768509;77;42514;-21
2020/12/08 22:09:39;;;;;;;30.37;16.90;;;;;;;0.67;100.00;97246.44;3752097;78;44063;-21
2020/12/08 22:14:45;;;;;;;28.67;17.27;;;;;;;0.68;100.00;97241.95;3770411;77;43689;-21
2020/12/08 22:19:53;;;;;;;29.57;17.17;;;;;;;0.69;100.00;97242.31;3763714;78;43694;-22
2020/12/08 22:25:00;;;;;;;30.27;16.57;;;;;;;0.66;100.00;97245.22;3767020;78;43690;-22
2020/12/08 22:30:08;;;;;;;31.53;17.43;;;;;;;0.75;100.00;97252.42;3763062;78;43693;-21
2020/12/08 22:35:15;;;;;;;31.40;18.20;;;;;;;0.82;100.00;97246.95;3768877;78;44055;-22
2020/12/08 22:40:21;;;;;;;27.67;16.87;;;;;;;0.86;100.00;97255.02;3765921;78;43988;-22
2020/12/08 22:45:27;;;;;;;30.80;17.30;;;;;;;0.96;100.00;97251.08;3769168;78;43303;-22
2020/12/08 22:50:33;;;;;;;32.03;17.77;;;;;;;0.94;100.00;97250.86;3787187;76;44074;-22
2020/12/08 22:55:38;;;;;;;33.33;18.27;;;;;;;0.95;100.00;97248.57;3815614;77;44058;-21
2020/12/08 23:00:45;;;;;;;29.30;17.57;;;;;;;0.98;100.00;97254.95;3814427;77;43491;-22
2020/12/08 23:05:52;;;;;;;27.90;16.90;;;;;;;0.98;100.00;97262.41;3820523;77;44122;-21
2020/12/08 23:10:58;;;;;;;30.77;17.40;;;;;;;1.01;100.00;97270.58;3779996;77;44077;-21
2020/12/08 23:16:04;;;;;;;33.53;18.77;;;;;;;1.08;100.00;97275.73;3816905;77;43266;-22
2020/12/08 23:21:10;;;;;;;30.53;17.90;;;;;;;1.13;100.00;97276.17;3814089;77;43381;-22
2020/12/08 23:26:16;;;;;;;31.03;17.93;;;;;;;1.19;100.00;97273.02;3802143;77;43467;-22
2020/12/08 23:31:22;;;;;;;32.97;18.57;;;;;;;1.27;100.00;97276.81;3812200;77;43428;-21
2020/12/08 23:36:28;;;;;;;33.87;18.40;;;;;;;1.32;100.00;97266.66;3811239;76;43723;-22
2020/12/08 23:41:42;;;;;;;35.33;18.60;;;;;;;1.34;100.00;97272.18;3812909;76;42797;-21